Time;durP1;ratioP1;P1;durP2;ratioP2;P2;SDS_P1;SDS_P2;PMS_P1;PMS_P2;Temp;Humidity;BMP_temperature;BMP_pressure;BME280_temperature;BME280_humidity;BME280_pressure;Samples;Min_cycle;Max_cycle;Signal;HPM_P1;HPM_P2
2023/10/24 00:01:02;;;;;;;11.05;7.90;;;13.80;99.90;;;;;;5137095;27;20026;-69
2023/10/24 00:03:27;;;;;;;9.43;7.43;;;13.80;99.90;;;;;;5136761;27;20054;-69
2023/10/24 00:05:53;;;;;;;14.90;8.40;;;13.80;99.90;;;;;;5137079;27;20024;-68
2023/10/24 00:08:19;;;;;;;10.90;7.85;;;13.80;99.90;;;;;;5137234;27;20383;-70
2023/10/24 00:10:44;;;;;;;10.98;7.57;;;13.80;99.90;;;;;;5136466;27;20076;-69
2023/10/24 00:13:10;;;;;;;10.95;7.50;;;13.80;99.90;;;;;;5136898;27;20034;-71
2023/10/24 00:15:36;;;;;;;10.57;7.47;;;13.80;99.90;;;;;;5136438;27;20106;-69
2023/10/24 00:18:02;;;;;;;13.27;7.85;;;13.80;99.90;;;;;;5136770;27;20451;-69
2023/10/24 00:20:27;;;;;;;12.60;7.50;;;13.80;99.90;;;;;;5136116;27;20519;-69
2023/10/24 00:22:53;;;;;;;8.07;7.13;;;13.80;99.90;;;;;;5136856;27;20023;-69
2023/10/24 00:25:19;;;;;;;12.25;7.50;;;13.80;99.90;;;;;;5136504;27;20023;-69
2023/10/24 00:27:45;;;;;;;9.00;6.55;;;13.90;99.90;;;;;;5136327;27;20375;-69
2023/10/24 00:30:11;;;;;;;9.57;7.63;;;13.90;99.90;;;;;;5136659;27;20463;-69
2023/10/24 00:32:36;;;;;;;11.90;7.50;;;13.90;99.90;;;;;;5136088;27;20029;-69
2023/10/24 00:35:03;;;;;;;11.63;8.10;;;14.00;99.90;;;;;;5136731;27;20046;-69
2023/10/24 00:37:29;;;;;;;12.10;8.15;;;14.00;99.90;;;;;;5135898;27;20392;-70
2023/10/24 00:39:54;;;;;;;14.68;8.45;;;14.00;99.90;;;;;;5136141;27;20042;-70
2023/10/24 00:42:20;;;;;;;12.35;7.68;;;14.00;99.90;;;;;;5136383;27;20031;-69
2023/10/24 00:44:47;;;;;;;11.73;8.02;;;14.00;99.90;;;;;;5136078;27;20046;-70
2023/10/24 00:47:13;;;;;;;16.42;9.02;;;14.00;99.90;;;;;;5136335;27;20038;-70
2023/10/24 00:49:39;;;;;;;11.98;7.90;;;14.00;99.90;;;;;;5135800;27;20092;-70
2023/10/24 00:52:05;;;;;;;11.63;8.20;;;14.00;99.90;;;;;;5136325;27;20451;-70
2023/10/24 00:54:33;;;;;;;11.13;7.97;;;14.00;99.90;;;;;;5135885;27;20031;-69
2023/10/24 00:56:59;;;;;;;11.63;8.32;;;14.00;99.90;;;;;;5136226;27;20079;-69
2023/10/24 00:59:27;;;;;;;13.55;8.82;;;14.00;99.90;;;;;;5135989;27;20066;-70
2023/10/24 01:01:53;;;;;;;11.27;7.45;;;14.00;99.90;;;;;;5136125;27;20429;-69
2023/10/24 01:04:22;;;;;;;14.65;7.22;;;14.00;99.90;;;;;;5135261;27;20083;-69
2023/10/24 01:06:47;;;;;;;13.40;7.97;;;14.00;99.90;;;;;;5135732;27;20027;-69
2023/10/24 01:09:13;;;;;;;10.43;7.75;;;14.10;99.90;;;;;;5136082;27;20027;-70
2023/10/24 01:11:39;;;;;;;17.02;8.10;;;14.10;99.90;;;;;;5135620;27;20023;-69
2023/10/24 01:14:05;;;;;;;11.25;7.95;;;14.10;99.90;;;;;;5135703;27;20484;-69
2023/10/24 01:16:40;;;;;;;10.98;7.40;;;14.10;99.90;;;;;;5135493;27;20031;-69
2023/10/24 01:19:06;;;;;;;11.20;8.07;;;14.10;99.90;;;;;;5135748;27;20035;-69
2023/10/24 01:21:31;;;;;;;12.70;7.65;;;14.10;99.90;;;;;;5135221;27;20098;-69
2023/10/24 01:23:57;;;;;;;12.55;8.13;;;14.10;99.90;;;;;;5135321;27;20485;-69
2023/10/24 01:26:24;;;;;;;11.30;7.90;;;14.10;99.90;;;;;;5135203;27;20030;-69
2023/10/24 01:28:50;;;;;;;13.20;8.05;;;14.10;99.90;;;;;;5131344;27;20048;-70
2023/10/24 01:31:15;;;;;;;13.23;8.18;;;14.10;99.90;;;;;;5135238;27;20023;-69
2023/10/24 01:33:41;;;;;;;10.73;7.93;;;14.20;99.90;;;;;;5134768;27;20427;-69
2023/10/24 01:36:06;;;;;;;12.65;8.00;;;14.20;99.90;;;;;;5135033;27;20027;-70
2023/10/24 01:38:32;;;;;;;14.20;9.45;;;14.20;99.90;;;;;;5135007;27;20371;-69
2023/10/24 01:40:58;;;;;;;10.77;7.68;;;14.20;99.90;;;;;;5135459;27;20048;-70
2023/10/24 01:43:23;;;;;;;12.02;8.80;;;14.20;99.90;;;;;;5135314;27;20030;-68
2023/10/24 01:45:49;;;;;;;12.18;8.18;;;14.20;99.90;;;;;;5134654;27;20023;-70
2023/10/24 01:48:14;;;;;;;11.13;8.45;;;14.20;99.90;;;;;;5134964;27;20067;-70
2023/10/24 01:50:40;;;;;;;9.45;7.55;;;14.10;99.90;;;;;;5134650;27;20039;-70
2023/10/24 01:53:05;;;;;;;10.60;8.30;;;14.10;99.90;;;;;;5134884;27;20034;-70
2023/10/24 01:55:31;;;;;;;14.68;8.90;;;14.10;99.90;;;;;;5134227;27;20112;-70
2023/10/24 01:57:57;;;;;;;11.77;8.77;;;14.10;99.90;;;;;;5135324;27;20493;-70
2023/10/24 02:00:22;;;;;;;11.25;8.73;;;14.10;99.90;;;;;;5134435;27;20034;-70
2023/10/24 02:02:48;;;;;;;11.15;7.88;;;14.10;99.90;;;;;;5133941;27;20023;-70
2023/10/24 02:05:14;;;;;;;13.20;9.38;;;14.10;99.90;;;;;;5134729;27;20026;-69
2023/10/24 02:07:39;;;;;;;11.85;9.50;;;14.20;99.90;;;;;;5134327;27;20111;-70
2023/10/24 02:10:06;;;;;;;12.43;10.40;;;14.20;99.90;;;;;;5134583;27;20031;-70
2023/10/24 02:12:32;;;;;;;13.30;9.93;;;14.20;99.90;;;;;;5133924;27;20034;-71
2023/10/24 02:14:57;;;;;;;12.93;9.68;;;14.10;99.90;;;;;;5133696;27;20023;-70
2023/10/24 02:17:23;;;;;;;14.13;10.90;;;14.10;99.90;;;;;;5134664;27;20114;-69
2023/10/24 02:19:48;;;;;;;14.38;11.38;;;14.20;99.90;;;;;;5134175;27;20522;-70
2023/10/24 02:22:14;;;;;;;15.02;10.95;;;14.10;99.90;;;;;;5134726;27;20027;-70
2023/10/24 02:24:40;;;;;;;14.82;10.85;;;14.20;99.90;;;;;;5134015;27;20023;-70
2023/10/24 02:27:05;;;;;;;18.83;10.98;;;14.20;99.90;;;;;;5134369;27;20110;-70
2023/10/24 02:29:33;;;;;;;15.80;10.50;;;14.20;99.90;;;;;;5134093;27;20034;-70
2023/10/24 02:32:00;;;;;;;17.02;10.43;;;14.20;99.90;;;;;;5134198;27;20062;-70
2023/10/24 02:34:25;;;;;;;18.63;11.60;;;14.20;99.90;;;;;;5134235;27;20038;-70
2023/10/24 02:36:51;;;;;;;15.88;10.85;;;14.20;99.90;;;;;;5133793;27;20027;-70
2023/10/24 02:39:18;;;;;;;13.57;10.50;;;14.20;99.90;;;;;;5134096;27;20122;-69
2023/10/24 02:41:44;;;;;;;13.07;10.98;;;14.20;99.90;;;;;;5133850;27;20027;-69
2023/10/24 02:44:09;;;;;;;16.17;10.60;;;14.20;99.90;;;;;;5133957;27;20024;-70
2023/10/24 02:46:35;;;;;;;14.73;10.80;;;14.20;99.90;;;;;;5133853;27;20463;-71
2023/10/24 02:49:00;;;;;;;18.48;13.63;;;14.20;99.90;;;;;;5134129;27;20027;-70
2023/10/24 02:51:27;;;;;;;19.90;14.55;;;14.20;99.90;;;;;;5133834;27;20089;-69
2023/10/24 02:53:52;;;;;;;19.83;12.93;;;14.20;99.90;;;;;;5133627;27;20129;-69
2023/10/24 02:56:18;;;;;;;20.55;13.38;;;14.20;99.90;;;;;;5133838;27;20046;-69
2023/10/24 02:58:43;;;;;;;21.08;16.70;;;14.20;99.90;;;;;;5133214;27;20455;-70
2023/10/24 03:01:09;;;;;;;20.95;14.13;;;14.20;99.90;;;;;;5133619;27;20076;-70
2023/10/24 03:03:35;;;;;;;16.55;11.70;;;14.20;99.90;;;;;;5115081;27;20061;-71
2023/10/24 03:06:00;;;;;;;20.27;10.80;;;14.20;99.90;;;;;;5133826;27;20068;-70
2023/10/24 03:08:26;;;;;;;12.93;9.10;;;14.20;99.90;;;;;;5134069;27;20031;-70
2023/10/24 03:10:52;;;;;;;11.10;8.15;;;14.10;99.90;;;;;;5133185;27;20035;-70
2023/10/24 03:13:17;;;;;;;17.60;8.90;;;14.10;99.90;;;;;;5133804;27;20030;-70
2023/10/24 03:15:43;;;;;;;20.95;8.85;;;14.00;99.90;;;;;;5133638;28;20192;-70
2023/10/24 03:18:09;;;;;;;14.07;9.40;;;14.00;99.90;;;;;;5133735;28;20023;-68
2023/10/24 03:20:35;;;;;;;13.05;8.48;;;14.00;99.90;;;;;;5133500;28;20087;-70
2023/10/24 03:23:00;;;;;;;11.88;8.55;;;14.00;99.90;;;;;;5133113;28;20510;-70
2023/10/24 03:25:26;;;;;;;13.73;9.18;;;14.00;99.90;;;;;;5133354;27;20414;-70
2023/10/24 03:27:53;;;;;;;12.32;8.30;;;14.00;99.90;;;;;;5136852;27;20027;-69
2023/10/24 03:30:22;;;;;;;12.55;9.23;;;14.00;99.90;;;;;;5137347;27;20062;-70
2023/10/24 03:32:48;;;;;;;14.10;9.25;;;14.10;99.90;;;;;;5118475;27;20031;-71
2023/10/24 03:35:17;;;;;;;16.95;12.77;;;14.00;99.90;;;;;;5119269;27;20145;-70
2023/10/24 03:37:43;;;;;;;17.17;11.70;;;14.10;99.90;;;;;;5116548;28;20027;-70
2023/10/24 03:40:09;;;;;;;21.17;11.95;;;14.10;99.90;;;;;;5117000;28;20490;-70
2023/10/24 03:42:35;;;;;;;15.65;12.23;;;14.10;99.90;;;;;;5117103;28;20043;-70
2023/10/24 03:45:00;;;;;;;25.95;18.08;;;14.10;99.90;;;;;;5116586;28;20376;-70
2023/10/24 03:47:26;;;;;;;28.92;20.92;;;14.10;99.90;;;;;;5116973;28;20027;-70
2023/10/24 03:49:52;;;;;;;31.20;20.48;;;14.10;99.90;;;;;;5116381;28;20062;-69
2023/10/24 03:52:18;;;;;;;28.52;20.45;;;14.10;99.90;;;;;;5116808;28;20034;-70
2023/10/24 03:54:43;;;;;;;33.75;21.40;;;14.10;99.90;;;;;;5116239;28;20063;-70
2023/10/24 03:57:09;;;;;;;27.55;17.90;;;14.10;99.90;;;;;;5116438;28;20097;-69
2023/10/24 03:59:35;;;;;;;26.40;17.35;;;14.10;99.90;;;;;;5116345;28;20023;-71
2023/10/24 04:02:00;;;;;;;22.75;14.07;;;14.10;99.90;;;;;;5116061;28;20059;-68
2023/10/24 04:04:26;;;;;;;20.88;13.85;;;14.00;99.90;;;;;;5119170;27;20031;-71
2023/10/24 04:06:51;;;;;;;24.90;16.90;;;14.10;99.90;;;;;;5136571;27;20029;-71
2023/10/24 04:09:17;;;;;;;24.15;15.80;;;14.00;99.90;;;;;;5137080;27;20034;-70
2023/10/24 04:11:43;;;;;;;36.45;18.05;;;14.00;99.90;;;;;;5136366;27;20066;-70
2023/10/24 04:14:09;;;;;;;27.38;18.33;;;14.00;99.90;;;;;;5136757;27;20031;-70
2023/10/24 04:16:35;;;;;;;27.67;19.80;;;14.00;99.90;;;;;;5136465;27;20356;-70
2023/10/24 04:19:01;;;;;;;26.23;19.05;;;14.00;99.90;;;;;;5136156;27;20042;-70
2023/10/24 04:21:26;;;;;;;24.23;17.80;;;14.00;99.90;;;;;;5136782;27;20034;-70
2023/10/24 04:23:52;;;;;;;24.13;16.27;;;14.00;99.90;;;;;;5136744;27;20102;-70
2023/10/24 04:26:18;;;;;;;21.38;15.48;;;14.00;99.90;;;;;;5136960;27;20041;-70
2023/10/24 04:28:44;;;;;;;24.98;16.88;;;14.00;99.90;;;;;;5136379;27;20106;-69
2023/10/24 04:31:09;;;;;;;30.83;21.25;;;14.00;99.90;;;;;;5136777;27;20223;-69
2023/10/24 04:33:35;;;;;;;28.65;21.23;;;13.90;99.90;;;;;;5137024;27;20027;-70
2023/10/24 04:36:01;;;;;;;25.88;19.70;;;13.90;99.90;;;;;;5136341;27;20275;-70
2023/10/24 04:38:26;;;;;;;26.42;22.98;;;13.90;99.90;;;;;;5135067;27;20471;-69
2023/10/24 04:40:52;;;;;;;29.77;23.05;;;13.90;99.90;;;;;;5136188;27;20328;-69
2023/10/24 04:43:18;;;;;;;27.58;23.30;;;13.90;99.90;;;;;;5136471;27;20019;-70
2023/10/24 04:45:44;;;;;;;34.60;24.00;;;13.90;99.90;;;;;;5136079;27;20027;-70
2023/10/24 04:48:10;;;;;;;34.30;22.33;;;13.90;99.90;;;;;;5136064;27;20055;-70
2023/10/24 04:50:40;;;;;;;27.73;22.45;;;13.90;99.90;;;;;;5136053;27;20481;-70
2023/10/24 04:53:06;;;;;;;28.98;22.92;;;13.90;99.90;;;;;;5135729;27;20431;-70
2023/10/24 04:55:32;;;;;;;31.83;24.63;;;13.90;99.90;;;;;;5136270;27;20114;-70
2023/10/24 04:57:58;;;;;;;26.88;23.27;;;13.90;99.90;;;;;;5136002;27;20047;-70
2023/10/24 05:00:24;;;;;;;30.85;23.58;;;14.00;99.90;;;;;;5136196;27;20452;-69
2023/10/24 05:02:51;;;;;;;28.02;22.48;;;14.00;99.90;;;;;;5121841;27;20036;-69
2023/10/24 05:05:17;;;;;;;26.88;23.05;;;14.00;99.90;;;;;;5114995;28;20081;-69
2023/10/24 05:07:43;;;;;;;28.80;23.30;;;14.00;99.90;;;;;;5115496;28;20406;-70
2023/10/24 05:10:10;;;;;;;24.52;21.75;;;13.90;99.90;;;;;;5115305;28;20073;-70
2023/10/24 05:12:36;;;;;;;28.58;23.67;;;13.90;99.90;;;;;;5115308;28;20027;-70
2023/10/24 05:15:02;;;;;;;26.63;22.95;;;13.90;99.90;;;;;;5114746;28;20020;-70
2023/10/24 05:17:30;;;;;;;29.58;23.83;;;13.90;99.90;;;;;;5114790;28;20028;-70
2023/10/24 05:20:03;;;;;;;28.65;23.48;;;13.80;99.90;;;;;;5120123;27;20382;-70
2023/10/24 05:22:29;;;;;;;30.13;23.42;;;13.80;99.90;;;;;;5135633;27;20031;-71
2023/10/24 05:24:55;;;;;;;26.15;22.67;;;13.80;99.90;;;;;;5134831;27;20519;-71
2023/10/24 05:27:21;;;;;;;25.10;21.58;;;13.80;99.90;;;;;;5131756;27;20140;-69
2023/10/24 05:29:46;;;;;;;24.10;19.45;;;13.80;99.90;;;;;;5135031;27;20031;-70
2023/10/24 05:32:12;;;;;;;24.85;20.92;;;13.80;99.90;;;;;;5135218;27;20026;-69
2023/10/24 05:34:38;;;;;;;27.15;21.55;;;13.80;99.90;;;;;;5135062;27;20030;-69
2023/10/24 05:37:04;;;;;;;25.52;21.40;;;13.80;99.90;;;;;;5134861;27;20027;-70
2023/10/24 05:39:30;;;;;;;26.05;21.48;;;13.90;99.90;;;;;;5135141;27;20066;-70
2023/10/24 05:41:56;;;;;;;24.58;19.40;;;13.80;99.90;;;;;;5134945;27;20031;-70
2023/10/24 05:44:22;;;;;;;22.10;17.65;;;13.90;99.90;;;;;;5135292;27;20083;-70
2023/10/24 05:46:48;;;;;;;22.35;17.83;;;13.90;99.90;;;;;;5134806;27;20126;-71
2023/10/24 05:49:14;;;;;;;24.80;16.75;;;13.90;99.90;;;;;;5116335;27;20031;-70
2023/10/24 05:51:39;;;;;;;26.35;19.05;;;13.90;99.90;;;;;;5134888;27;20030;-70
2023/10/24 05:54:05;;;;;;;23.98;19.52;;;13.90;99.90;;;;;;5134602;27;20029;-70
2023/10/24 05:56:34;;;;;;;28.30;22.50;;;13.90;99.90;;;;;;5134795;27;20042;-71
2023/10/24 05:59:00;;;;;;;25.17;22.33;;;13.90;99.90;;;;;;5133127;27;20035;-69
2023/10/24 06:01:26;;;;;;;30.30;26.20;;;14.00;99.90;;;;;;5134837;27;20433;-70
2023/10/24 06:03:51;;;;;;;35.22;26.80;;;13.90;99.90;;;;;;5134556;27;20034;-71
2023/10/24 06:06:17;;;;;;;32.85;24.45;;;14.00;99.90;;;;;;5134841;27;20030;-70
2023/10/24 06:08:44;;;;;;;30.65;24.17;;;13.90;99.90;;;;;;5134878;27;20102;-71
2023/10/24 06:11:10;;;;;;;30.00;23.23;;;14.00;99.90;;;;;;5134250;27;20031;-71
2023/10/24 06:13:36;;;;;;;29.40;22.33;;;14.00;99.90;;;;;;5134600;27;20046;-71
2023/10/24 06:16:13;;;;;;;22.80;16.67;;;14.00;99.90;;;;;;5115576;27;20034;-70
2023/10/24 06:18:39;;;;;;;17.05;13.15;;;14.00;99.90;;;;;;5134657;27;20555;-70
2023/10/24 06:21:06;;;;;;;15.93;11.55;;;14.00;99.90;;;;;;5134075;27;20062;-70
2023/10/24 06:23:32;;;;;;;17.45;10.55;;;14.00;99.90;;;;;;5134072;27;20030;-70
2023/10/24 06:25:58;;;;;;;11.00;9.40;;;14.00;99.90;;;;;;5134065;27;20038;-70
2023/10/24 06:28:25;;;;;;;14.65;9.85;;;14.00;99.90;;;;;;5134470;27;20031;-70
2023/10/24 06:30:58;;;;;;;12.23;9.77;;;14.00;99.90;;;;;;5134228;27;20076;-71
2023/10/24 06:33:27;;;;;;;14.65;11.02;;;14.00;99.90;;;;;;5134345;27;20090;-70
2023/10/24 06:35:57;;;;;;;16.20;11.43;;;14.00;99.90;;;;;;5134057;27;20023;-70
2023/10/24 06:38:22;;;;;;;16.10;12.65;;;14.00;99.90;;;;;;5134003;27;20106;-70
2023/10/24 06:40:49;;;;;;;17.90;12.30;;;14.00;99.90;;;;;;5133783;27;20110;-70
2023/10/24 06:43:15;;;;;;;16.85;12.95;;;14.00;99.90;;;;;;5133466;27;20031;-70
2023/10/24 06:45:42;;;;;;;18.45;12.43;;;14.00;99.90;;;;;;5133723;27;20091;-70
2023/10/24 06:48:08;;;;;;;19.98;15.90;;;14.00;99.90;;;;;;5133689;27;20093;-70
2023/10/24 06:50:34;;;;;;;23.17;19.35;;;14.00;99.90;;;;;;5133815;27;20031;-70
2023/10/24 06:52:59;;;;;;;28.52;21.08;;;14.00;99.90;;;;;;5133971;27;20031;-71
2023/10/24 06:55:25;;;;;;;25.83;20.48;;;14.00;99.90;;;;;;5134021;27;20440;-70
2023/10/24 06:57:51;;;;;;;28.80;21.27;;;14.00;99.90;;;;;;5133721;27;20479;-70
2023/10/24 07:00:17;;;;;;;25.00;21.45;;;14.00;99.90;;;;;;5133241;27;20455;-70
2023/10/24 07:02:42;;;;;;;28.15;21.02;;;14.10;99.90;;;;;;5133427;27;20042;-70
2023/10/24 07:05:08;;;;;;;23.25;18.80;;;14.00;99.90;;;;;;5133002;27;20380;-71
2023/10/24 07:07:35;;;;;;;21.50;17.52;;;14.10;99.90;;;;;;5133591;27;20023;-70
2023/10/24 07:10:01;;;;;;;30.05;21.08;;;14.10;99.90;;;;;;5133206;27;20028;-70
2023/10/24 07:12:27;;;;;;;27.05;20.27;;;14.00;99.90;;;;;;5133441;27;20029;-70
2023/10/24 07:14:53;;;;;;;32.60;19.73;;;14.00;99.90;;;;;;5133493;27;20083;-70
2023/10/24 07:17:19;;;;;;;24.92;21.15;;;14.00;99.90;;;;;;5132964;28;20034;-70
2023/10/24 07:19:45;;;;;;;29.42;20.20;;;14.10;99.90;;;;;;5133287;28;20066;-70
2023/10/24 07:22:11;;;;;;;30.65;21.67;;;14.00;99.90;;;;;;5132498;28;20038;-70
2023/10/24 07:24:37;;;;;;;26.35;19.92;;;14.00;99.90;;;;;;5133672;28;20019;-70
2023/10/24 07:27:03;;;;;;;25.33;18.45;;;14.00;99.90;;;;;;5133373;28;20056;-70
2023/10/24 07:29:29;;;;;;;24.88;18.15;;;14.10;99.90;;;;;;5133732;28;20027;-70
2023/10/24 07:31:55;;;;;;;21.55;15.80;;;14.10;99.90;;;;;;5133291;28;20034;-72
2023/10/24 07:34:21;;;;;;;19.67;15.60;;;14.10;99.90;;;;;;5132778;28;20023;-71
2023/10/24 07:36:46;;;;;;;20.90;15.35;;;14.10;99.90;;;;;;5111555;28;20428;-70
2023/10/24 07:39:15;;;;;;;22.55;14.18;;;14.10;99.90;;;;;;5132950;28;20027;-70
2023/10/24 07:41:40;;;;;;;17.65;13.27;;;14.20;99.90;;;;;;5133047;28;20395;-70
2023/10/24 07:44:06;;;;;;;18.75;13.55;;;14.20;99.90;;;;;;5132785;28;20019;-69
2023/10/24 07:46:32;;;;;;;20.48;15.13;;;14.20;99.90;;;;;;5132882;28;20087;-70
2023/10/24 07:48:58;;;;;;;20.38;15.55;;;14.30;99.90;;;;;;5132641;28;20031;-71
2023/10/24 07:51:31;;;;;;;22.40;15.57;;;14.30;99.90;;;;;;5133280;28;20059;-70
2023/10/24 07:53:57;;;;;;;18.58;14.52;;;14.30;99.90;;;;;;5133020;28;20096;-72
2023/10/24 07:56:23;;;;;;;18.50;14.23;;;14.30;99.90;;;;;;5132259;28;20047;-70
2023/10/24 07:58:49;;;;;;;19.52;13.98;;;14.30;99.90;;;;;;5132788;28;20580;-70
2023/10/24 08:01:14;;;;;;;21.60;15.20;;;14.30;99.90;;;;;;5132749;28;20343;-70
2023/10/24 08:03:40;;;;;;;19.60;13.80;;;14.30;99.90;;;;;;5133169;28;20034;-70
2023/10/24 08:06:06;;;;;;;18.48;14.02;;;14.30;99.90;;;;;;5132694;28;20417;-70
2023/10/24 08:08:31;;;;;;;17.58;13.02;;;14.30;99.90;;;;;;5114900;28;20039;-69
2023/10/24 08:10:57;;;;;;;19.00;12.90;;;14.30;99.90;;;;;;5114702;28;20027;-70
2023/10/24 08:13:22;;;;;;;17.85;13.27;;;14.30;99.90;;;;;;5135922;27;20144;-70
2023/10/24 08:15:52;;;;;;;17.35;13.13;;;14.40;99.90;;;;;;5136575;27;20034;-71
2023/10/24 08:18:20;;;;;;;19.42;13.50;;;14.40;99.90;;;;;;5136472;27;20073;-69
2023/10/24 08:20:46;;;;;;;17.42;13.48;;;14.40;99.90;;;;;;5136787;27;20354;-71
2023/10/24 08:23:12;;;;;;;22.27;13.90;;;14.40;99.90;;;;;;5136583;27;20027;-71
2023/10/24 08:25:38;;;;;;;20.58;12.48;;;14.40;99.90;;;;;;5136823;27;20019;-70
2023/10/24 08:28:04;;;;;;;19.50;11.93;;;14.40;99.90;;;;;;5136396;27;20046;-70
2023/10/24 08:30:31;;;;;;;18.60;12.82;;;14.40;99.90;;;;;;5118151;27;20058;-71
2023/10/24 08:32:57;;;;;;;16.05;12.52;;;14.40;99.90;;;;;;5136550;27;20467;-71
2023/10/24 08:35:23;;;;;;;15.23;11.05;;;14.40;99.90;;;;;;5135672;27;20019;-70
2023/10/24 08:37:49;;;;;;;13.35;10.80;;;14.50;99.90;;;;;;5136353;27;20034;-70
2023/10/24 08:40:15;;;;;;;12.00;10.57;;;14.50;99.90;;;;;;5136766;27;20051;-71
2023/10/24 08:42:41;;;;;;;15.30;10.15;;;14.50;99.90;;;;;;5136994;27;20031;-71
2023/10/24 08:45:08;;;;;;;15.25;10.07;;;14.50;99.90;;;;;;5136118;27;20023;-71
2023/10/24 08:47:35;;;;;;;14.85;9.75;;;14.50;99.90;;;;;;5135866;27;20495;-70
2023/10/24 08:50:01;;;;;;;15.13;11.10;;;14.50;99.90;;;;;;5136076;27;20031;-72
2023/10/24 08:52:29;;;;;;;16.63;11.90;;;14.50;99.90;;;;;;5136135;27;20027;-70
2023/10/24 08:54:57;;;;;;;15.32;10.55;;;14.50;99.90;;;;;;5136013;27;20031;-70
2023/10/24 08:57:27;;;;;;;17.50;9.80;;;14.60;99.90;;;;;;5135406;27;20039;-71
2023/10/24 08:59:55;;;;;;;12.20;9.80;;;14.60;99.90;;;;;;5135923;27;20038;-69
2023/10/24 09:02:21;;;;;;;15.18;9.52;;;14.50;99.90;;;;;;5135934;27;20035;-70
2023/10/24 09:04:49;;;;;;;15.48;9.60;;;14.50;99.90;;;;;;5136371;27;20478;-70
2023/10/24 09:07:15;;;;;;;12.25;9.98;;;14.50;99.90;;;;;;5135560;27;20107;-70
2023/10/24 09:09:40;;;;;;;12.73;9.00;;;14.50;99.90;;;;;;5135502;27;20073;-70
2023/10/24 09:12:09;;;;;;;17.73;10.98;;;14.50;99.90;;;;;;5135006;27;20428;-71
2023/10/24 09:14:35;;;;;;;13.05;10.32;;;14.50;99.90;;;;;;5135281;27;20023;-70
2023/10/24 09:17:04;;;;;;;13.30;9.10;;;14.50;99.90;;;;;;5135700;27;20034;-70
2023/10/24 09:19:31;;;;;;;13.65;8.80;;;14.50;99.90;;;;;;5135320;27;20027;-71
2023/10/24 09:21:57;;;;;;;18.67;8.45;;;14.40;99.90;;;;;;5135709;27;20035;-70
2023/10/24 09:24:23;;;;;;;13.20;8.90;;;14.40;99.90;;;;;;5134458;27;20080;-69
2023/10/24 09:26:59;;;;;;;14.10;9.35;;;14.40;99.90;;;;;;5135161;27;20076;-70
2023/10/24 09:29:27;;;;;;;18.13;9.65;;;14.30;99.90;;;;;;5134876;27;20027;-71
2023/10/24 09:31:53;;;;;;;17.92;8.90;;;14.30;99.90;;;;;;5135340;27;20106;-70
2023/10/24 09:34:19;;;;;;;12.98;9.35;;;14.30;99.90;;;;;;5134811;27;20126;-71
2023/10/24 09:36:46;;;;;;;10.98;8.13;;;14.30;99.90;;;;;;5135138;27;20464;-69
2023/10/24 09:39:13;;;;;;;13.57;8.73;;;14.30;99.90;;;;;;5134768;27;20027;-71
2023/10/24 09:41:41;;;;;;;15.13;7.30;;;14.30;99.90;;;;;;5135236;27;20038;-70
2023/10/24 09:44:08;;;;;;;15.43;7.53;;;14.30;99.90;;;;;;5122468;27;20046;-72
2023/10/24 09:46:35;;;;;;;9.27;6.38;;;14.30;99.90;;;;;;5121155;27;20050;-70
2023/10/24 09:49:02;;;;;;;12.88;7.28;;;14.30;99.90;;;;;;5135112;27;20059;-70
2023/10/24 09:51:28;;;;;;;11.32;7.15;;;14.30;99.90;;;;;;5134963;27;20035;-70
2023/10/24 09:53:55;;;;;;;9.98;7.00;;;14.30;99.90;;;;;;5135007;27;20023;-70
2023/10/24 09:56:20;;;;;;;9.07;7.22;;;14.40;99.90;;;;;;5134177;27;20055;-69
2023/10/24 09:58:46;;;;;;;14.13;7.55;;;14.50;99.90;;;;;;5135219;27;20027;-70
2023/10/24 10:01:12;;;;;;;11.27;6.82;;;14.50;99.90;;;;;;5134647;27;20115;-70
2023/10/24 10:03:38;;;;;;;13.38;6.68;;;14.50;99.90;;;;;;5135012;27;20092;-70
2023/10/24 10:06:09;;;;;;;10.82;4.80;;;14.50;99.90;;;;;;5134560;27;20464;-70
2023/10/24 10:08:37;;;;;;;;;;;14.60;99.90;;;;;;5135185;27;20490;-70
2023/10/24 10:11:05;;;;;;;13.93;4.70;;;14.60;99.90;;;;;;5134717;27;19903;-70
2023/10/24 10:13:38;;;;;;;11.70;4.68;;;14.50;99.90;;;;;;5134125;27;20037;-71
2023/10/24 10:16:43;;;;;;;7.00;4.13;;;14.60;99.90;;;;;;5134492;27;20023;-70
2023/10/24 10:19:46;;;;;;;8.07;3.97;;;14.60;99.90;;;;;;5091731;27;20062;-72
2023/10/24 10:22:29;;;;;;;6.95;4.13;;;14.60;99.90;;;;;;5133898;27;20039;-71
2023/10/24 10:25:29;;;;;;;8.25;4.15;;;14.60;99.90;;;;;;5134453;27;20054;-70
2023/10/24 10:28:23;;;;;;;8.48;3.90;;;14.50;99.90;;;;;;5134150;27;20034;-70
2023/10/24 10:31:39;;;;;;;8.52;4.53;;;14.60;99.90;;;;;;5134161;27;20106;-70
2023/10/24 10:34:06;;;;;;;12.65;3.83;;;14.50;99.90;;;;;;5050330;28;20044;-69
2023/10/24 10:36:31;;;;;;;6.35;3.33;;;14.50;99.90;;;;;;5115621;27;20129;-70
2023/10/24 10:39:00;;;;;;;7.55;4.10;;;14.50;99.90;;;;;;5133890;27;20114;-70
2023/10/24 10:41:29;;;;;;;8.07;3.75;;;14.50;99.90;;;;;;5133669;27;20467;-70
2023/10/24 10:43:59;;;;;;;6.28;3.47;;;14.50;99.90;;;;;;5134064;27;20034;-70
2023/10/24 10:46:29;;;;;;;8.98;3.85;;;14.50;99.90;;;;;;5133432;27;20034;-69
2023/10/24 10:48:59;;;;;;;10.50;4.13;;;14.50;99.90;;;;;;5133851;27;20042;-69
2023/10/24 10:51:28;;;;;;;7.68;3.85;;;14.50;99.90;;;;;;5133093;27;20516;-70
2023/10/24 10:54:17;;;;;;;7.88;3.88;;;14.50;99.90;;;;;;5133598;27;20518;-70
2023/10/24 10:56:44;;;;;;;6.45;3.95;;;14.50;99.90;;;;;;5133367;27;20070;-71
2023/10/24 10:59:44;;;;;;;6.95;3.63;;;14.50;99.90;;;;;;5133178;27;20061;-70
2023/10/24 11:02:23;;;;;;;9.90;3.80;;;14.50;99.90;;;;;;5133855;27;20076;-69
2023/10/24 11:04:49;;;;;;;9.52;4.13;;;14.50;99.90;;;;;;5133236;27;20491;-71
2023/10/24 11:07:14;;;;;;;10.88;4.68;;;14.60;99.90;;;;;;5132896;27;20027;-71
2023/10/24 11:09:41;;;;;;;6.95;3.70;;;14.60;99.90;;;;;;5133447;27;20034;-70
2023/10/24 11:12:26;;;;;;;8.68;4.10;;;14.60;99.90;;;;;;5133068;27;20023;-70
2023/10/24 11:15:06;;;;;;;8.52;3.65;;;14.60;99.90;;;;;;5133225;27;20033;-71
2023/10/24 11:17:32;;;;;;;9.38;4.22;;;14.70;99.90;;;;;;5132870;27;20062;-71
2023/10/24 11:20:05;;;;;;;12.57;4.15;;;14.70;99.90;;;;;;5133481;28;20433;-70
2023/10/24 11:22:31;;;;;;;5.97;4.18;;;14.70;99.90;;;;;;5133128;28;20415;-71
2023/10/24 11:24:57;;;;;;;5.57;3.78;;;14.70;99.90;;;;;;5133402;28;20023;-71
2023/10/24 11:27:23;;;;;;;7.07;4.13;;;14.70;99.90;;;;;;5132957;28;20027;-71
2023/10/24 11:29:50;;;;;;;8.88;4.57;;;14.80;99.90;;;;;;5133013;28;20144;-70
2023/10/24 11:32:16;;;;;;;7.22;3.38;;;14.80;99.90;;;;;;5133006;28;20035;-71
2023/10/24 11:34:42;;;;;;;8.60;3.63;;;14.70;99.90;;;;;;5133489;28;20040;-72
2023/10/24 11:37:08;;;;;;;7.43;3.63;;;14.80;99.90;;;;;;5133114;28;20023;-71
2023/10/24 11:39:34;;;;;;;9.40;3.47;;;14.80;99.90;;;;;;5132863;28;20027;-69
2023/10/24 11:42:01;;;;;;;8.15;3.03;;;14.70;99.90;;;;;;5133448;28;20030;-69
2023/10/24 11:44:27;;;;;;;10.38;3.70;;;14.80;99.90;;;;;;5133084;28;20035;-71
2023/10/24 11:46:52;;;;;;;10.07;3.53;;;14.80;99.90;;;;;;5133669;27;20035;-70
2023/10/24 11:49:18;;;;;;;7.57;3.60;;;14.80;99.90;;;;;;5137450;27;20087;-71
2023/10/24 11:51:44;;;;;;;20.88;4.25;;;14.80;99.90;;;;;;5133793;27;20054;-71
2023/10/24 11:54:11;;;;;;;7.90;3.50;;;14.80;99.90;;;;;;5136937;27;20020;-70
2023/10/24 11:56:38;;;;;;;7.20;3.88;;;14.80;99.90;;;;;;5136522;27;20987;-70
2023/10/24 11:59:04;;;;;;;10.82;3.75;;;14.80;99.90;;;;;;5137263;27;20035;-70
2023/10/24 12:01:32;;;;;;;6.30;3.70;;;14.80;99.90;;;;;;5136642;27;20130;-70
2023/10/24 12:03:59;;;;;;;9.38;3.63;;;14.80;99.90;;;;;;5137099;27;20024;-70
2023/10/24 12:06:26;;;;;;;10.18;4.20;;;14.70;99.90;;;;;;5136367;27;20360;-70
2023/10/24 12:08:53;;;;;;;9.63;3.95;;;14.70;99.90;;;;;;5137164;27;20038;-70
2023/10/24 12:11:20;;;;;;;6.70;3.53;;;14.70;99.90;;;;;;5136695;27;20066;-69
2023/10/24 12:13:46;;;;;;;6.63;4.07;;;14.70;99.90;;;;;;5136668;27;20038;-71
2023/10/24 12:16:12;;;;;;;7.30;4.22;;;14.70;99.90;;;;;;5136854;27;20034;-70
2023/10/24 12:18:38;;;;;;;11.02;4.68;;;14.70;99.90;;;;;;5117949;27;20027;-70
2023/10/24 12:21:04;;;;;;;12.32;4.88;;;14.60;99.90;;;;;;5136674;27;20109;-70
2023/10/24 12:23:30;;;;;;;12.98;4.18;;;14.60;99.90;;;;;;5135883;27;20434;-71
2023/10/24 12:25:56;;;;;;;8.50;4.20;;;14.50;99.90;;;;;;5136590;27;20161;-69
2023/10/24 12:28:22;;;;;;;12.45;4.35;;;14.60;99.90;;;;;;5136324;27;20408;-72
2023/10/24 12:30:47;;;;;;;9.60;4.07;;;14.40;99.90;;;;;;5136453;27;20029;-70
2023/10/24 12:33:13;;;;;;;7.97;4.55;;;14.40;99.90;;;;;;5136659;27;20023;-71